Accueil
METAR-TAF:

METAR-TAF

Aéroports :

Iekaterinbourg, Russie

Aéroport Koltsovo

latitude: 56-50N, longitude: 060-38E, altitude: 237 m

Observation

Le bulletin a été fait il y a 26 minutes, à 17:30 UTC
Vent 6 kt de sud
Température 0°C
Humidité 93%
Pression 1024 hPa
Visibilité 10 km ou plus
Nuages fragmentés à une hauteur de 2400 ft
neige faible

METAR: USSS 191730Z 17003MPS 9999 -SN BKN024 00/M01 Q1024 R26R/190045 NOSIG RMK QFE747/0997

Heure: 22:56 (17:56 UTC)

Prévision

Le bulletin a été fait il y a 1 heure et 0 minutes, à 16:56 UTC
Prévision valable du 19 à 18 UTC au 20 à 18 UTC
Vent 10 kt de sud
Visibilité 10 km ou plus
Nuages fragmentés à une hauteur de 1100 ft
Temporairement
du 19 à 18 UTC au 20 à 03 UTC
Visibilité: 3100 m
neige faible

TAF: USSS 191656Z 1918/2018 18005MPS 9999 BKN011 TEMPO 1918/2003 3100 -SN

Observations et prévisions météorologiques de plus de 4000 aéroports (messages METAR et TAF).

Les stations disponibles sont représentées par des disques jaunes et rouges sur la carte.

Passer la souris dessus pour voir le nom de la station.

Cliquer dessus pour voir les observations et prévisions météorologiques.

Pour changer de carte: cliquez sur les boutons verts avec une croix noire pour zoomer, sur le bouton vert avec un tiret pour effectuer un zoom arrière, ou sur les flèches vertes pour les cartes adjacentes.


METAR-TAF: